sensor_id;sensor_type;location;lat;lon;timestamp;P1;durP1;ratioP1;P2;durP2;ratioP2
12024;SDS011;6073;53.230;10.444;2023-02-15T00:01:55;54.60;;;29.40;;
12024;SDS011;6073;53.230;10.444;2023-02-15T00:04:21;42.55;;;27.60;;
12024;SDS011;6073;53.230;10.444;2023-02-15T00:06:48;49.15;;;28.40;;
12024;SDS011;6073;53.230;10.444;2023-02-15T00:09:14;43.05;;;27.13;;
12024;SDS011;6073;53.230;10.444;2023-02-15T00:11:40;49.60;;;28.15;;
12024;SDS011;6073;53.230;10.444;2023-02-15T00:16:50;49.70;;;29.80;;
12024;SDS011;6073;53.230;10.444;2023-02-15T00:19:17;47.50;;;28.70;;
12024;SDS011;6073;53.230;10.444;2023-02-15T00:21:44;51.90;;;30.13;;
12024;SDS011;6073;53.230;10.444;2023-02-15T00:24:11;44.90;;;27.63;;
12024;SDS011;6073;53.230;10.444;2023-02-15T00:26:39;45.63;;;27.77;;
12024;SDS011;6073;53.230;10.444;2023-02-15T00:29:06;45.85;;;27.27;;
12024;SDS011;6073;53.230;10.444;2023-02-15T00:31:32;45.58;;;28.05;;
12024;SDS011;6073;53.230;10.444;2023-02-15T00:34:05;51.08;;;29.67;;
12024;SDS011;6073;53.230;10.444;2023-02-15T00:36:32;49.97;;;28.35;;
12024;SDS011;6073;53.230;10.444;2023-02-15T00:38:58;45.90;;;26.88;;
12024;SDS011;6073;53.230;10.444;2023-02-15T00:41:24;45.13;;;27.13;;
12024;SDS011;6073;53.230;10.444;2023-02-15T00:43:50;43.45;;;27.10;;
12024;SDS011;6073;53.230;10.444;2023-02-15T00:46:15;45.78;;;26.92;;
12024;SDS011;6073;53.230;10.444;2023-02-15T00:48:41;47.67;;;29.23;;
12024;SDS011;6073;53.230;10.444;2023-02-15T00:51:06;46.17;;;26.88;;
12024;SDS011;6073;53.230;10.444;2023-02-15T00:53:32;51.53;;;29.33;;
12024;SDS011;6073;53.230;10.444;2023-02-15T00:55:58;46.50;;;27.17;;
12024;SDS011;6073;53.230;10.444;2023-02-15T00:58:24;42.35;;;27.88;;
12024;SDS011;6073;53.230;10.444;2023-02-15T01:00:50;48.45;;;27.75;;
12024;SDS011;6073;53.230;10.444;2023-02-15T01:03:16;50.35;;;27.38;;
12024;SDS011;6073;53.230;10.444;2023-02-15T01:05:43;47.60;;;27.45;;
12024;SDS011;6073;53.230;10.444;2023-02-15T01:08:09;45.33;;;27.70;;
12024;SDS011;6073;53.230;10.444;2023-02-15T01:10:35;45.30;;;27.27;;
12024;SDS011;6073;53.230;10.444;2023-02-15T01:13:00;47.85;;;25.80;;
12024;SDS011;6073;53.230;10.444;2023-02-15T01:15:26;43.17;;;26.30;;
12024;SDS011;6073;53.230;10.444;2023-02-15T01:17:52;45.40;;;25.98;;
12024;SDS011;6073;53.230;10.444;2023-02-15T01:20:22;49.97;;;28.38;;
12024;SDS011;6073;53.230;10.444;2023-02-15T01:22:50;44.70;;;27.67;;
12024;SDS011;6073;53.230;10.444;2023-02-15T01:25:16;48.85;;;28.02;;
12024;SDS011;6073;53.230;10.444;2023-02-15T01:27:42;42.42;;;25.15;;
12024;SDS011;6073;53.230;10.444;2023-02-15T01:30:09;53.88;;;30.88;;
12024;SDS011;6073;53.230;10.444;2023-02-15T01:32:35;49.90;;;29.05;;
12024;SDS011;6073;53.230;10.444;2023-02-15T01:35:02;56.85;;;30.42;;
12024;SDS011;6073;53.230;10.444;2023-02-15T01:37:30;46.55;;;27.75;;
12024;SDS011;6073;53.230;10.444;2023-02-15T01:39:56;50.05;;;29.67;;
12024;SDS011;6073;53.230;10.444;2023-02-15T01:42:25;58.40;;;30.40;;
12024;SDS011;6073;53.230;10.444;2023-02-15T01:44:59;47.25;;;27.88;;
12024;SDS011;6073;53.230;10.444;2023-02-15T01:47:33;56.00;;;30.08;;
12024;SDS011;6073;53.230;10.444;2023-02-15T01:50:09;54.75;;;29.25;;
12024;SDS011;6073;53.230;10.444;2023-02-15T01:52:52;52.13;;;31.02;;
12024;SDS011;6073;53.230;10.444;2023-02-15T01:55:58;57.90;;;29.90;;
12024;SDS011;6073;53.230;10.444;2023-02-15T01:58:44;53.35;;;29.67;;
12024;SDS011;6073;53.230;10.444;2023-02-15T02:01:14;50.72;;;29.38;;
12024;SDS011;6073;53.230;10.444;2023-02-15T02:06:25;56.53;;;27.23;;
12024;SDS011;6073;53.230;10.444;2023-02-15T02:08:52;44.95;;;25.67;;
12024;SDS011;6073;53.230;10.444;2023-02-15T02:11:19;44.72;;;26.08;;
12024;SDS011;6073;53.230;10.444;2023-02-15T02:13:45;41.70;;;25.45;;
12024;SDS011;6073;53.230;10.444;2023-02-15T02:16:16;50.08;;;26.48;;
12024;SDS011;6073;53.230;10.444;2023-02-15T02:22:07;43.95;;;26.20;;
12024;SDS011;6073;53.230;10.444;2023-02-15T02:27:34;53.90;;;26.77;;
12024;SDS011;6073;53.230;10.444;2023-02-15T02:33:03;71.90;;;27.15;;
12024;SDS011;6073;53.230;10.444;2023-02-15T02:35:54;38.20;;;23.58;;
12024;SDS011;6073;53.230;10.444;2023-02-15T02:38:48;45.88;;;24.75;;
12024;SDS011;6073;53.230;10.444;2023-02-15T02:44:31;35.42;;;23.38;;
12024;SDS011;6073;53.230;10.444;2023-02-15T02:47:09;38.35;;;23.88;;
12024;SDS011;6073;53.230;10.444;2023-02-15T02:49:44;49.17;;;23.77;;
12024;SDS011;6073;53.230;10.444;2023-02-15T02:55:11;35.70;;;23.08;;
12024;SDS011;6073;53.230;10.444;2023-02-15T03:00:20;35.55;;;21.67;;
12024;SDS011;6073;53.230;10.444;2023-02-15T03:02:48;39.03;;;22.33;;
12024;SDS011;6073;53.230;10.444;2023-02-15T03:05:20;38.85;;;23.35;;
12024;SDS011;6073;53.230;10.444;2023-02-15T03:07:50;37.22;;;23.17;;
12024;SDS011;6073;53.230;10.444;2023-02-15T03:10:17;38.05;;;23.35;;
12024;SDS011;6073;53.230;10.444;2023-02-15T03:12:45;39.72;;;23.60;;
12024;SDS011;6073;53.230;10.444;2023-02-15T03:15:19;42.63;;;24.65;;
12024;SDS011;6073;53.230;10.444;2023-02-15T03:17:57;38.05;;;23.25;;
12024;SDS011;6073;53.230;10.444;2023-02-15T03:20:28;38.88;;;23.85;;
12024;SDS011;6073;53.230;10.444;2023-02-15T03:23:06;39.35;;;23.67;;
12024;SDS011;6073;53.230;10.444;2023-02-15T03:25:40;38.35;;;23.88;;
12024;SDS011;6073;53.230;10.444;2023-02-15T03:28:09;38.60;;;23.52;;
12024;SDS011;6073;53.230;10.444;2023-02-15T03:30:40;38.90;;;21.85;;
12024;SDS011;6073;53.230;10.444;2023-02-15T03:33:08;37.40;;;22.13;;
12024;SDS011;6073;53.230;10.444;2023-02-15T03:35:40;56.75;;;24.58;;
12024;SDS011;6073;53.230;10.444;2023-02-15T03:38:20;44.63;;;23.42;;
12024;SDS011;6073;53.230;10.444;2023-02-15T03:40:49;37.42;;;23.50;;
12024;SDS011;6073;53.230;10.444;2023-02-15T03:48:37;36.72;;;21.00;;
12024;SDS011;6073;53.230;10.444;2023-02-15T03:51:12;33.15;;;20.50;;
12024;SDS011;6073;53.230;10.444;2023-02-15T03:54:02;28.42;;;18.42;;
12024;SDS011;6073;53.230;10.444;2023-02-15T03:56:31;26.27;;;18.42;;
12024;SDS011;6073;53.230;10.444;2023-02-15T03:58:59;28.45;;;19.35;;
12024;SDS011;6073;53.230;10.444;2023-02-15T04:01:54;44.42;;;20.88;;
12024;SDS011;6073;53.230;10.444;2023-02-15T04:04:37;34.00;;;18.25;;
12024;SDS011;6073;53.230;10.444;2023-02-15T04:07:05;32.20;;;19.98;;
12024;SDS011;6073;53.230;10.444;2023-02-15T04:09:32;31.55;;;19.83;;
12024;SDS011;6073;53.230;10.444;2023-02-15T04:12:16;31.73;;;18.98;;
12024;SDS011;6073;53.230;10.444;2023-02-15T04:14:41;27.63;;;18.15;;
12024;SDS011;6073;53.230;10.444;2023-02-15T04:17:25;38.35;;;18.17;;
12024;SDS011;6073;53.230;10.444;2023-02-15T04:19:51;31.52;;;18.92;;
12024;SDS011;6073;53.230;10.444;2023-02-15T04:22:35;44.17;;;19.55;;
12024;SDS011;6073;53.230;10.444;2023-02-15T04:25:19;33.05;;;19.48;;
12024;SDS011;6073;53.230;10.444;2023-02-15T04:27:47;31.90;;;19.25;;
12024;SDS011;6073;53.230;10.444;2023-02-15T04:30:14;38.95;;;19.20;;
12024;SDS011;6073;53.230;10.444;2023-02-15T04:32:41;35.72;;;20.33;;
12024;SDS011;6073;53.230;10.444;2023-02-15T04:35:07;36.40;;;20.20;;
12024;SDS011;6073;53.230;10.444;2023-02-15T04:37:34;36.33;;;19.92;;
12024;SDS011;6073;53.230;10.444;2023-02-15T04:40:00;50.65;;;20.67;;
12024;SDS011;6073;53.230;10.444;2023-02-15T04:42:25;35.70;;;19.55;;
12024;SDS011;6073;53.230;10.444;2023-02-15T04:44:52;47.03;;;21.25;;
12024;SDS011;6073;53.230;10.444;2023-02-15T04:47:18;29.98;;;19.05;;
12024;SDS011;6073;53.230;10.444;2023-02-15T04:49:43;28.05;;;17.92;;
12024;SDS011;6073;53.230;10.444;2023-02-15T04:52:09;31.35;;;19.05;;
12024;SDS011;6073;53.230;10.444;2023-02-15T04:54:35;30.95;;;19.02;;
12024;SDS011;6073;53.230;10.444;2023-02-15T04:57:01;32.67;;;18.70;;
12024;SDS011;6073;53.230;10.444;2023-02-15T04:59:26;33.53;;;19.45;;
12024;SDS011;6073;53.230;10.444;2023-02-15T05:01:52;34.22;;;20.23;;
12024;SDS011;6073;53.230;10.444;2023-02-15T05:04:17;34.15;;;19.77;;
12024;SDS011;6073;53.230;10.444;2023-02-15T05:06:43;32.70;;;19.90;;
12024;SDS011;6073;53.230;10.444;2023-02-15T05:09:09;34.28;;;20.15;;
12024;SDS011;6073;53.230;10.444;2023-02-15T05:11:36;33.60;;;20.00;;
12024;SDS011;6073;53.230;10.444;2023-02-15T05:14:01;37.78;;;20.50;;
12024;SDS011;6073;53.230;10.444;2023-02-15T05:16:27;35.67;;;20.65;;
12024;SDS011;6073;53.230;10.444;2023-02-15T05:18:52;37.03;;;20.75;;
12024;SDS011;6073;53.230;10.444;2023-02-15T05:21:18;30.98;;;19.10;;
12024;SDS011;6073;53.230;10.444;2023-02-15T05:23:44;43.63;;;21.20;;
12024;SDS011;6073;53.230;10.444;2023-02-15T05:26:16;38.05;;;21.65;;
12024;SDS011;6073;53.230;10.444;2023-02-15T05:29:02;34.65;;;19.95;;
12024;SDS011;6073;53.230;10.444;2023-02-15T05:31:28;33.58;;;20.23;;
12024;SDS011;6073;53.230;10.444;2023-02-15T05:33:53;39.50;;;21.80;;
12024;SDS011;6073;53.230;10.444;2023-02-15T05:36:19;34.30;;;20.70;;
12024;SDS011;6073;53.230;10.444;2023-02-15T05:38:44;41.30;;;20.92;;
12024;SDS011;6073;53.230;10.444;2023-02-15T05:41:10;37.42;;;21.10;;
12024;SDS011;6073;53.230;10.444;2023-02-15T05:43:36;34.55;;;20.35;;
12024;SDS011;6073;53.230;10.444;2023-02-15T05:46:01;33.70;;;20.60;;
12024;SDS011;6073;53.230;10.444;2023-02-15T05:48:28;60.90;;;21.95;;
12024;SDS011;6073;53.230;10.444;2023-02-15T05:51:07;36.28;;;20.80;;
12024;SDS011;6073;53.230;10.444;2023-02-15T05:53:38;43.60;;;21.33;;
12024;SDS011;6073;53.230;10.444;2023-02-15T05:56:05;36.47;;;21.02;;
12024;SDS011;6073;53.230;10.444;2023-02-15T05:58:33;40.45;;;21.63;;
12024;SDS011;6073;53.230;10.444;2023-02-15T06:01:16;37.50;;;20.38;;
12024;SDS011;6073;53.230;10.444;2023-02-15T06:03:43;36.15;;;20.63;;
12024;SDS011;6073;53.230;10.444;2023-02-15T06:06:10;35.00;;;20.05;;
12024;SDS011;6073;53.230;10.444;2023-02-15T06:08:36;29.67;;;18.63;;
12024;SDS011;6073;53.230;10.444;2023-02-15T06:11:02;38.88;;;21.00;;
12024;SDS011;6073;53.230;10.444;2023-02-15T06:13:29;31.50;;;18.73;;
12024;SDS011;6073;53.230;10.444;2023-02-15T06:15:55;64.22;;;22.52;;
12024;SDS011;6073;53.230;10.444;2023-02-15T06:18:21;30.20;;;18.55;;
12024;SDS011;6073;53.230;10.444;2023-02-15T06:20:46;31.42;;;18.73;;
12024;SDS011;6073;53.230;10.444;2023-02-15T06:23:12;38.38;;;20.10;;
12024;SDS011;6073;53.230;10.444;2023-02-15T06:25:38;34.25;;;19.02;;
12024;SDS011;6073;53.230;10.444;2023-02-15T06:28:03;37.42;;;19.77;;
12024;SDS011;6073;53.230;10.444;2023-02-15T06:30:29;36.75;;;20.63;;
12024;SDS011;6073;53.230;10.444;2023-02-15T06:32:54;41.33;;;21.23;;
12024;SDS011;6073;53.230;10.444;2023-02-15T06:35:20;36.60;;;19.92;;
12024;SDS011;6073;53.230;10.444;2023-02-15T06:37:46;46.15;;;21.85;;
12024;SDS011;6073;53.230;10.444;2023-02-15T06:40:12;35.90;;;20.83;;
12024;SDS011;6073;53.230;10.444;2023-02-15T06:42:38;38.80;;;20.92;;
12024;SDS011;6073;53.230;10.444;2023-02-15T06:45:04;38.05;;;21.75;;
12024;SDS011;6073;53.230;10.444;2023-02-15T06:47:29;34.65;;;20.52;;
12024;SDS011;6073;53.230;10.444;2023-02-15T06:49:55;36.45;;;21.75;;
12024;SDS011;6073;53.230;10.444;2023-02-15T06:52:20;35.30;;;20.55;;
12024;SDS011;6073;53.230;10.444;2023-02-15T06:54:46;32.97;;;19.80;;
12024;SDS011;6073;53.230;10.444;2023-02-15T06:57:11;44.25;;;20.48;;
12024;SDS011;6073;53.230;10.444;2023-02-15T06:59:37;41.47;;;20.65;;
12024;SDS011;6073;53.230;10.444;2023-02-15T07:02:02;35.38;;;21.00;;
12024;SDS011;6073;53.230;10.444;2023-02-15T07:04:28;32.45;;;20.10;;
12024;SDS011;6073;53.230;10.444;2023-02-15T07:06:54;32.83;;;19.17;;
12024;SDS011;6073;53.230;10.444;2023-02-15T07:09:20;37.55;;;20.67;;
12024;SDS011;6073;53.230;10.444;2023-02-15T07:11:46;33.38;;;19.10;;
12024;SDS011;6073;53.230;10.444;2023-02-15T07:14:30;33.70;;;18.95;;
12024;SDS011;6073;53.230;10.444;2023-02-15T07:16:56;31.85;;;20.23;;
12024;SDS011;6073;53.230;10.444;2023-02-15T07:19:22;30.83;;;19.25;;
12024;SDS011;6073;53.230;10.444;2023-02-15T07:21:47;40.17;;;20.85;;
12024;SDS011;6073;53.230;10.444;2023-02-15T07:24:13;36.95;;;19.13;;
12024;SDS011;6073;53.230;10.444;2023-02-15T07:26:39;28.92;;;18.00;;
12024;SDS011;6073;53.230;10.444;2023-02-15T07:29:04;30.85;;;18.75;;
12024;SDS011;6073;53.230;10.444;2023-02-15T07:31:30;39.50;;;20.42;;
12024;SDS011;6073;53.230;10.444;2023-02-15T07:33:55;31.67;;;19.08;;
12024;SDS011;6073;53.230;10.444;2023-02-15T07:36:21;29.10;;;18.63;;
12024;SDS011;6073;53.230;10.444;2023-02-15T07:38:46;28.40;;;17.73;;
12024;SDS011;6073;53.230;10.444;2023-02-15T07:41:13;35.22;;;19.83;;
12024;SDS011;6073;53.230;10.444;2023-02-15T07:43:40;37.90;;;19.17;;
12024;SDS011;6073;53.230;10.444;2023-02-15T07:46:09;35.80;;;19.25;;
12024;SDS011;6073;53.230;10.444;2023-02-15T07:48:36;31.85;;;18.45;;
12024;SDS011;6073;53.230;10.444;2023-02-15T07:51:03;36.92;;;19.88;;
12024;SDS011;6073;53.230;10.444;2023-02-15T07:53:31;55.10;;;21.35;;
12024;SDS011;6073;53.230;10.444;2023-02-15T07:56:01;30.92;;;19.73;;
12024;SDS011;6073;53.230;10.444;2023-02-15T07:58:28;35.03;;;20.25;;
12024;SDS011;6073;53.230;10.444;2023-02-15T08:01:13;33.03;;;21.30;;
12024;SDS011;6073;53.230;10.444;2023-02-15T08:03:39;33.90;;;20.02;;
12024;SDS011;6073;53.230;10.444;2023-02-15T08:06:05;36.75;;;20.27;;
12024;SDS011;6073;53.230;10.444;2023-02-15T08:08:32;29.23;;;18.55;;
12024;SDS011;6073;53.230;10.444;2023-02-15T08:14:01;34.83;;;21.60;;
12024;SDS011;6073;53.230;10.444;2023-02-15T08:16:36;37.42;;;21.98;;
12024;SDS011;6073;53.230;10.444;2023-02-15T08:19:10;31.13;;;19.38;;
12024;SDS011;6073;53.230;10.444;2023-02-15T08:21:37;34.78;;;19.85;;
12024;SDS011;6073;53.230;10.444;2023-02-15T08:24:05;34.15;;;19.95;;
12024;SDS011;6073;53.230;10.444;2023-02-15T08:26:32;36.53;;;21.75;;
12024;SDS011;6073;53.230;10.444;2023-02-15T08:28:58;31.58;;;20.42;;
12024;SDS011;6073;53.230;10.444;2023-02-15T08:31:25;27.23;;;18.13;;
12024;SDS011;6073;53.230;10.444;2023-02-15T08:33:52;27.90;;;18.20;;
12024;SDS011;6073;53.230;10.444;2023-02-15T08:36:20;28.40;;;18.35;;
12024;SDS011;6073;53.230;10.444;2023-02-15T08:38:47;30.38;;;17.83;;
12024;SDS011;6073;53.230;10.444;2023-02-15T08:43:43;35.28;;;19.27;;
12024;SDS011;6073;53.230;10.444;2023-02-15T08:46:11;27.27;;;17.70;;
12024;SDS011;6073;53.230;10.444;2023-02-15T08:48:37;27.38;;;18.88;;
12024;SDS011;6073;53.230;10.444;2023-02-15T08:51:06;24.98;;;17.88;;
12024;SDS011;6073;53.230;10.444;2023-02-15T08:53:44;28.50;;;17.58;;
12024;SDS011;6073;53.230;10.444;2023-02-15T08:56:11;34.92;;;18.95;;
12024;SDS011;6073;53.230;10.444;2023-02-15T08:58:37;28.20;;;18.20;;
12024;SDS011;6073;53.230;10.444;2023-02-15T09:01:36;25.63;;;18.70;;
12024;SDS011;6073;53.230;10.444;2023-02-15T09:03:57;32.03;;;19.65;;
12024;SDS011;6073;53.230;10.444;2023-02-15T09:06:24;25.00;;;17.52;;
12024;SDS011;6073;53.230;10.444;2023-02-15T09:08:50;24.90;;;16.50;;
12024;SDS011;6073;53.230;10.444;2023-02-15T09:11:18;24.15;;;16.75;;
12024;SDS011;6073;53.230;10.444;2023-02-15T09:14:10;32.33;;;17.75;;
12024;SDS011;6073;53.230;10.444;2023-02-15T09:16:38;24.52;;;17.33;;
12024;SDS011;6073;53.230;10.444;2023-02-15T09:19:05;23.35;;;16.52;;
12024;SDS011;6073;53.230;10.444;2023-02-15T09:21:31;23.98;;;16.40;;
12024;SDS011;6073;53.230;10.444;2023-02-15T09:23:59;42.58;;;18.27;;
12024;SDS011;6073;53.230;10.444;2023-02-15T09:26:26;24.35;;;16.02;;
12024;SDS011;6073;53.230;10.444;2023-02-15T09:28:58;24.45;;;17.67;;
12024;SDS011;6073;53.230;10.444;2023-02-15T09:31:47;22.58;;;16.38;;
12024;SDS011;6073;53.230;10.444;2023-02-15T09:34:14;22.70;;;16.73;;
12024;SDS011;6073;53.230;10.444;2023-02-15T09:36:42;27.63;;;18.15;;
12024;SDS011;6073;53.230;10.444;2023-02-15T09:39:09;23.33;;;16.55;;
12024;SDS011;6073;53.230;10.444;2023-02-15T09:41:44;27.05;;;17.63;;
12024;SDS011;6073;53.230;10.444;2023-02-15T09:44:28;25.05;;;16.27;;
12024;SDS011;6073;53.230;10.444;2023-02-15T09:50:00;21.88;;;16.05;;
12024;SDS011;6073;53.230;10.444;2023-02-15T10:05:52;22.98;;;16.33;;
12024;SDS011;6073;53.230;10.444;2023-02-15T10:11:29;22.35;;;15.73;;
12024;SDS011;6073;53.230;10.444;2023-02-15T10:17:08;22.05;;;15.88;;
12024;SDS011;6073;53.230;10.444;2023-02-15T10:20:13;22.30;;;16.83;;
12024;SDS011;6073;53.230;10.444;2023-02-15T10:22:57;21.52;;;15.25;;
12024;SDS011;6073;53.230;10.444;2023-02-15T10:25:41;21.83;;;15.50;;
12024;SDS011;6073;53.230;10.444;2023-02-15T10:33:42;20.00;;;14.65;;
12024;SDS011;6073;53.230;10.444;2023-02-15T10:38:40;19.33;;;13.68;;
12024;SDS011;6073;53.230;10.444;2023-02-15T10:47:04;18.80;;;14.02;;
12024;SDS011;6073;53.230;10.444;2023-02-15T10:52:35;17.52;;;13.63;;
12024;SDS011;6073;53.230;10.444;2023-02-15T10:55:26;19.13;;;14.38;;
12024;SDS011;6073;53.230;10.444;2023-02-15T11:01:05;16.25;;;13.60;;
12024;SDS011;6073;53.230;10.444;2023-02-15T11:04:02;18.63;;;14.20;;
12024;SDS011;6073;53.230;10.444;2023-02-15T11:07:56;17.58;;;13.55;;
12024;SDS011;6073;53.230;10.444;2023-02-15T11:09:56;18.90;;;14.05;;
12024;SDS011;6073;53.230;10.444;2023-02-15T11:12:44;20.10;;;14.63;;
12024;SDS011;6073;53.230;10.444;2023-02-15T11:23:50;17.25;;;13.70;;
12024;SDS011;6073;53.230;10.444;2023-02-15T11:29:18;16.95;;;13.80;;
12024;SDS011;6073;53.230;10.444;2023-02-15T11:31:49;17.65;;;13.38;;
12024;SDS011;6073;53.230;10.444;2023-02-15T11:34:27;20.20;;;14.65;;
12024;SDS011;6073;53.230;10.444;2023-02-15T11:36:58;17.70;;;14.50;;
12024;SDS011;6073;53.230;10.444;2023-02-15T11:39:42;20.13;;;13.88;;
12024;SDS011;6073;53.230;10.444;2023-02-15T11:42:16;19.30;;;14.35;;
12024;SDS011;6073;53.230;10.444;2023-02-15T11:44:50;19.08;;;14.65;;
12024;SDS011;6073;53.230;10.444;2023-02-15T11:47:29;18.30;;;14.55;;
12024;SDS011;6073;53.230;10.444;2023-02-15T11:49:56;18.02;;;13.38;;
12024;SDS011;6073;53.230;10.444;2023-02-15T11:52:22;16.77;;;14.18;;
12024;SDS011;6073;53.230;10.444;2023-02-15T11:54:49;17.05;;;14.48;;
12024;SDS011;6073;53.230;10.444;2023-02-15T12:00:00;17.90;;;13.43;;
12024;SDS011;6073;53.230;10.444;2023-02-15T12:02:35;19.08;;;15.02;;
12024;SDS011;6073;53.230;10.444;2023-02-15T12:05:03;20.15;;;14.48;;
12024;SDS011;6073;53.230;10.444;2023-02-15T12:07:40;19.40;;;15.02;;
12024;SDS011;6073;53.230;10.444;2023-02-15T12:10:16;16.27;;;13.55;;
12024;SDS011;6073;53.230;10.444;2023-02-15T12:13:07;19.33;;;14.63;;
12024;SDS011;6073;53.230;10.444;2023-02-15T12:15:33;18.90;;;15.20;;
12024;SDS011;6073;53.230;10.444;2023-02-15T12:18:00;19.15;;;14.85;;
12024;SDS011;6073;53.230;10.444;2023-02-15T12:20:29;20.25;;;14.95;;
12024;SDS011;6073;53.230;10.444;2023-02-15T12:23:04;19.98;;;15.40;;
12024;SDS011;6073;53.230;10.444;2023-02-15T12:25:40;21.65;;;15.55;;
12024;SDS011;6073;53.230;10.444;2023-02-15T12:28:19;18.00;;;14.10;;
12024;SDS011;6073;53.230;10.444;2023-02-15T12:31:01;17.92;;;14.45;;
12024;SDS011;6073;53.230;10.444;2023-02-15T12:33:35;18.73;;;14.80;;
12024;SDS011;6073;53.230;10.444;2023-02-15T12:36:12;18.13;;;14.63;;
12024;SDS011;6073;53.230;10.444;2023-02-15T12:38:43;20.25;;;15.95;;
12024;SDS011;6073;53.230;10.444;2023-02-15T12:41:26;18.95;;;15.05;;
12024;SDS011;6073;53.230;10.444;2023-02-15T12:44:17;17.13;;;14.40;;
12024;SDS011;6073;53.230;10.444;2023-02-15T12:46:57;25.10;;;15.23;;
12024;SDS011;6073;53.230;10.444;2023-02-15T12:49:26;22.75;;;15.18;;
12024;SDS011;6073;53.230;10.444;2023-02-15T12:51:57;20.52;;;16.00;;
12024;SDS011;6073;53.230;10.444;2023-02-15T12:56:52;19.90;;;15.90;;
12024;SDS011;6073;53.230;10.444;2023-02-15T12:59:18;23.00;;;16.02;;
12024;SDS011;6073;53.230;10.444;2023-02-15T13:01:47;19.90;;;15.52;;
12024;SDS011;6073;53.230;10.444;2023-02-15T13:04:15;19.50;;;15.63;;
12024;SDS011;6073;53.230;10.444;2023-02-15T13:06:52;19.75;;;15.55;;
12024;SDS011;6073;53.230;10.444;2023-02-15T13:11:56;19.30;;;15.25;;
12024;SDS011;6073;53.230;10.444;2023-02-15T13:14:28;18.80;;;15.85;;
12024;SDS011;6073;53.230;10.444;2023-02-15T13:16:57;22.65;;;17.35;;
12024;SDS011;6073;53.230;10.444;2023-02-15T13:19:33;19.73;;;15.80;;
12024;SDS011;6073;53.230;10.444;2023-02-15T13:22:02;22.23;;;16.17;;
12024;SDS011;6073;53.230;10.444;2023-02-15T13:24:37;21.80;;;16.88;;
12024;SDS011;6073;53.230;10.444;2023-02-15T13:27:07;23.23;;;16.60;;
12024;SDS011;6073;53.230;10.444;2023-02-15T13:29:38;20.95;;;16.25;;
12024;SDS011;6073;53.230;10.444;2023-02-15T13:32:25;21.50;;;16.80;;
12024;SDS011;6073;53.230;10.444;2023-02-15T13:34:52;21.55;;;15.80;;
12024;SDS011;6073;53.230;10.444;2023-02-15T14:17:20;19.98;;;15.95;;
12024;SDS011;6073;53.230;10.444;2023-02-15T14:20:17;21.63;;;16.40;;
12024;SDS011;6073;53.230;10.444;2023-02-15T14:25:49;20.88;;;16.63;;
12024;SDS011;6073;53.230;10.444;2023-02-15T14:28:30;21.42;;;16.05;;
12024;SDS011;6073;53.230;10.444;2023-02-15T14:31:04;20.17;;;16.05;;
12024;SDS011;6073;53.230;10.444;2023-02-15T14:33:34;22.60;;;17.10;;
12024;SDS011;6073;53.230;10.444;2023-02-15T14:36:04;21.50;;;16.58;;
12024;SDS011;6073;53.230;10.444;2023-02-15T14:47:05;22.85;;;16.95;;
12024;SDS011;6073;53.230;10.444;2023-02-15T14:49:40;22.05;;;17.00;;
12024;SDS011;6073;53.230;10.444;2023-02-15T14:52:06;21.52;;;16.48;;
12024;SDS011;6073;53.230;10.444;2023-02-15T14:59:36;21.85;;;17.85;;
12024;SDS011;6073;53.230;10.444;2023-02-15T15:04:34;24.65;;;18.67;;
12024;SDS011;6073;53.230;10.444;2023-02-15T15:07:14;24.85;;;17.98;;
12024;SDS011;6073;53.230;10.444;2023-02-15T15:09:58;22.67;;;16.92;;
12024;SDS011;6073;53.230;10.444;2023-02-15T15:12:52;25.02;;;17.38;;
12024;SDS011;6073;53.230;10.444;2023-02-15T15:15:45;22.73;;;17.20;;
12024;SDS011;6073;53.230;10.444;2023-02-15T15:18:42;22.90;;;17.40;;
12024;SDS011;6073;53.230;10.444;2023-02-15T15:21:51;25.17;;;18.65;;
12024;SDS011;6073;53.230;10.444;2023-02-15T15:32:59;23.05;;;17.17;;
12024;SDS011;6073;53.230;10.444;2023-02-15T15:41:16;24.05;;;17.83;;
12024;SDS011;6073;53.230;10.444;2023-02-15T15:46:39;21.98;;;16.27;;
12024;SDS011;6073;53.230;10.444;2023-02-15T15:49:20;25.45;;;17.73;;
12024;SDS011;6073;53.230;10.444;2023-02-15T15:51:48;22.88;;;16.85;;
12024;SDS011;6073;53.230;10.444;2023-02-15T15:54:21;22.73;;;17.20;;
12024;SDS011;6073;53.230;10.444;2023-02-15T15:56:50;23.27;;;17.83;;
12024;SDS011;6073;53.230;10.444;2023-02-15T15:59:20;26.05;;;18.83;;
12024;SDS011;6073;53.230;10.444;2023-02-15T16:01:49;24.85;;;16.70;;
12024;SDS011;6073;53.230;10.444;2023-02-15T16:04:26;23.33;;;17.92;;
12024;SDS011;6073;53.230;10.444;2023-02-15T16:07:41;23.95;;;17.30;;
12024;SDS011;6073;53.230;10.444;2023-02-15T16:12:24;24.70;;;18.10;;
12024;SDS011;6073;53.230;10.444;2023-02-15T16:14:51;23.15;;;17.02;;
12024;SDS011;6073;53.230;10.444;2023-02-15T16:17:20;24.52;;;17.63;;
12024;SDS011;6073;53.230;10.444;2023-02-15T16:19:48;24.15;;;17.55;;
12024;SDS011;6073;53.230;10.444;2023-02-15T16:22:22;25.75;;;18.13;;
12024;SDS011;6073;53.230;10.444;2023-02-15T16:27:41;24.65;;;18.40;;
12024;SDS011;6073;53.230;10.444;2023-02-15T16:30:22;26.75;;;18.55;;
12024;SDS011;6073;53.230;10.444;2023-02-15T16:33:11;25.05;;;17.23;;
12024;SDS011;6073;53.230;10.444;2023-02-15T16:35:39;23.48;;;16.35;;
12024;SDS011;6073;53.230;10.444;2023-02-15T16:38:17;27.55;;;18.75;;
12024;SDS011;6073;53.230;10.444;2023-02-15T16:40:55;25.73;;;17.20;;
12024;SDS011;6073;53.230;10.444;2023-02-15T16:43:24;24.98;;;18.33;;
12024;SDS011;6073;53.230;10.444;2023-02-15T16:45:52;24.92;;;18.23;;
12024;SDS011;6073;53.230;10.444;2023-02-15T16:48:27;27.35;;;18.33;;
12024;SDS011;6073;53.230;10.444;2023-02-15T16:50:53;27.02;;;19.13;;
12024;SDS011;6073;53.230;10.444;2023-02-15T16:53:24;26.08;;;18.48;;
12024;SDS011;6073;53.230;10.444;2023-02-15T16:55:55;27.08;;;18.85;;
12024;SDS011;6073;53.230;10.444;2023-02-15T16:58:26;28.77;;;19.83;;
12024;SDS011;6073;53.230;10.444;2023-02-15T17:01:03;32.78;;;21.48;;
12024;SDS011;6073;53.230;10.444;2023-02-15T17:03:32;31.17;;;21.08;;
12024;SDS011;6073;53.230;10.444;2023-02-15T17:05:59;32.33;;;21.83;;
12024;SDS011;6073;53.230;10.444;2023-02-15T17:13:23;31.92;;;20.83;;
12024;SDS011;6073;53.230;10.444;2023-02-15T17:18:38;30.80;;;21.08;;
12024;SDS011;6073;53.230;10.444;2023-02-15T17:21:09;32.28;;;21.67;;
12024;SDS011;6073;53.230;10.444;2023-02-15T17:23:42;34.13;;;23.85;;
12024;SDS011;6073;53.230;10.444;2023-02-15T17:26:22;31.42;;;22.08;;
12024;SDS011;6073;53.230;10.444;2023-02-15T17:28:54;35.35;;;24.63;;
12024;SDS011;6073;53.230;10.444;2023-02-15T17:31:22;33.97;;;21.90;;
12024;SDS011;6073;53.230;10.444;2023-02-15T17:33:53;34.65;;;22.27;;
12024;SDS011;6073;53.230;10.444;2023-02-15T17:36:21;34.95;;;22.95;;
12024;SDS011;6073;53.230;10.444;2023-02-15T17:39:12;32.78;;;22.48;;
12024;SDS011;6073;53.230;10.444;2023-02-15T17:41:48;37.83;;;23.20;;
12024;SDS011;6073;53.230;10.444;2023-02-15T17:44:17;39.30;;;25.55;;
12024;SDS011;6073;53.230;10.444;2023-02-15T17:46:43;35.90;;;23.48;;
12024;SDS011;6073;53.230;10.444;2023-02-15T17:49:23;37.25;;;23.80;;
12024;SDS011;6073;53.230;10.444;2023-02-15T17:51:53;35.58;;;23.08;;